Time;durP1;ratioP1;P1;durP2;ratioP2;P2;SDS_P1;SDS_P2;PMS_P1;PMS_P2;Temp;Humidity;BMP_temperature;BMP_pressure;BME280_temperature;BME280_humidity;BME280_pressure;Samples;Min_cycle;Max_cycle;Signal;HPM_P1;HPM_P2
2022/04/16 00:01:49;;;;;;;82.63;56.35;;;19.50;62.90;;;;;;4942676;28;91411;-39
2022/04/16 00:04:15;;;;;;;83.53;56.60;;;19.40;62.90;;;;;;4942165;28;90239;-38
2022/04/16 00:06:41;;;;;;;82.95;56.38;;;19.40;62.90;;;;;;4941315;28;92291;-36
2022/04/16 00:09:06;;;;;;;81.93;55.83;;;19.40;63.00;;;;;;4938015;28;90515;-39
2022/04/16 00:11:32;;;;;;;83.43;55.97;;;19.40;62.90;;;;;;4940179;28;90034;-34
2022/04/16 00:13:58;;;;;;;84.32;56.53;;;19.40;63.00;;;;;;4953776;28;90072;-35
2022/04/16 00:16:24;;;;;;;82.60;55.92;;;19.40;63.00;;;;;;4941702;28;93748;-41
2022/04/16 00:18:50;;;;;;;81.63;55.60;;;19.40;63.00;;;;;;4940156;28;90872;-39
2022/04/16 00:21:17;;;;;;;83.38;55.92;;;19.40;63.00;;;;;;4937466;28;90057;-39
2022/04/16 00:23:43;;;;;;;81.10;55.50;;;19.30;63.00;;;;;;4940272;28;91504;-37
2022/04/16 00:26:12;;;;;;;83.45;56.78;;;19.30;63.10;;;;;;4942555;28;90716;-40
2022/04/16 00:28:38;;;;;;;81.22;55.70;;;19.30;63.20;;;;;;4942883;28;93394;-36
2022/04/16 00:31:04;;;;;;;81.85;55.90;;;19.30;63.10;;;;;;4945860;28;90274;-37
2022/04/16 00:33:31;;;;;;;82.93;56.20;;;19.30;63.10;;;;;;4942307;28;90400;-35
2022/04/16 00:35:57;;;;;;;81.75;55.53;;;19.30;63.20;;;;;;4941253;28;90430;-41
2022/04/16 00:38:23;;;;;;;81.78;55.65;;;19.30;63.10;;;;;;4935048;28;91219;-37
2022/04/16 00:40:48;;;;;;;82.50;56.45;;;19.20;63.00;;;;;;4937322;28;90892;-36
2022/04/16 00:43:23;;;;;;;83.32;55.45;;;19.20;62.90;;;;;;4940065;28;90860;-35
2022/04/16 00:45:49;;;;;;;83.07;56.58;;;19.20;62.70;;;;;;4941346;28;89996;-38
2022/04/16 00:48:15;;;;;;;82.65;56.10;;;19.20;63.60;;;;;;4940927;28;90432;-37
2022/04/16 00:50:41;;;;;;;83.00;55.90;;;19.20;63.00;;;;;;4940408;28;91381;-35
2022/04/16 00:53:07;;;;;;;82.30;55.40;;;19.20;62.90;;;;;;4946632;28;92798;-39
2022/04/16 00:55:37;;;;;;;80.93;55.13;;;19.20;62.80;;;;;;4942997;28;89965;-38
2022/04/16 00:58:03;;;;;;;83.15;55.60;;;19.20;62.90;;;;;;4950567;28;89145;-40
2022/04/16 01:00:29;;;;;;;81.03;55.20;;;19.20;62.90;;;;;;4945092;28;90268;-39
2022/04/16 01:02:56;;;;;;;81.35;55.00;;;19.10;62.90;;;;;;4947629;28;90365;-37
2022/04/16 01:05:22;;;;;;;82.25;55.53;;;19.10;63.00;;;;;;4944862;28;98157;-40
2022/04/16 01:07:56;;;;;;;82.28;56.17;;;19.10;63.00;;;;;;4945960;28;90329;-33
2022/04/16 01:10:26;;;;;;;81.78;55.15;;;19.10;62.90;;;;;;4938702;28;90036;-37
2022/04/16 01:12:56;;;;;;;81.00;55.05;;;19.10;63.00;;;;;;4951844;28;89920;-38
2022/04/16 01:15:23;;;;;;;82.53;55.42;;;19.10;62.80;;;;;;4948724;28;89445;-40
2022/04/16 01:17:51;;;;;;;80.93;55.22;;;19.10;62.80;;;;;;4954880;28;90142;-37
2022/04/16 01:20:18;;;;;;;81.88;55.90;;;19.10;62.80;;;;;;4952405;28;90808;-37
2022/04/16 01:22:45;;;;;;;83.03;55.53;;;19.10;62.80;;;;;;4956787;28;89850;-40
2022/04/16 01:25:11;;;;;;;82.25;55.85;;;19.10;62.70;;;;;;4957426;28;90282;-39
2022/04/16 01:27:39;;;;;;;81.97;55.65;;;19.10;62.80;;;;;;4949996;28;90099;-39
2022/04/16 01:30:05;;;;;;;81.75;55.83;;;19.10;62.80;;;;;;4944324;28;92667;-36
2022/04/16 01:32:34;;;;;;;80.13;54.53;;;19.00;62.70;;;;;;4940538;28;91538;-38
2022/04/16 01:35:00;;;;;;;82.43;55.40;;;19.00;62.80;;;;;;4946059;28;90173;-37
2022/04/16 01:37:33;;;;;;;81.97;55.45;;;19.00;62.80;;;;;;4943151;28;89797;-38
2022/04/16 01:40:03;;;;;;;81.18;54.92;;;19.00;62.80;;;;;;4943191;28;92073;-40
2022/04/16 01:42:29;;;;;;;80.90;55.65;;;19.00;62.90;;;;;;4941491;28;89962;-37
2022/04/16 01:45:00;;;;;;;81.43;55.72;;;19.00;62.80;;;;;;4945192;28;90623;-37
2022/04/16 01:47:27;;;;;;;82.45;55.75;;;19.00;62.80;;;;;;4952492;28;90161;-35
2022/04/16 01:49:53;;;;;;;82.25;55.25;;;19.00;62.80;;;;;;4945838;28;90347;-35
2022/04/16 01:52:19;;;;;;;80.75;55.38;;;19.00;62.70;;;;;;4939721;28;89806;-36
2022/04/16 01:54:45;;;;;;;82.90;55.80;;;19.00;62.80;;;;;;4943682;28;91306;-40
2022/04/16 01:57:10;;;;;;;81.32;55.35;;;19.00;62.80;;;;;;4940257;28;91282;-37
2022/04/16 01:59:36;;;;;;;81.35;55.35;;;19.00;62.80;;;;;;4940119;28;91143;-38
2022/04/16 02:02:02;;;;;;;82.00;55.60;;;18.90;62.60;;;;;;4941983;28;92371;-38
2022/04/16 02:04:28;;;;;;;82.93;55.38;;;19.00;62.80;;;;;;4943965;28;90303;-36
2022/04/16 02:06:54;;;;;;;82.18;55.78;;;18.90;63.40;;;;;;4944113;28;89920;-37
2022/04/16 02:09:19;;;;;;;81.07;55.47;;;18.90;62.80;;;;;;4942036;28;90856;-40
2022/04/16 02:11:45;;;;;;;82.00;56.13;;;18.90;62.70;;;;;;4935841;28;90925;-34
2022/04/16 02:14:11;;;;;;;82.25;56.50;;;18.90;62.60;;;;;;4949986;28;89800;-36
2022/04/16 02:16:36;;;;;;;80.78;55.70;;;18.90;62.60;;;;;;4944580;28;90166;-36
2022/04/16 02:19:02;;;;;;;81.68;55.55;;;18.90;62.40;;;;;;4945534;28;93404;-41
2022/04/16 02:21:30;;;;;;;82.22;55.38;;;18.90;62.50;;;;;;4941129;28;91048;-38
2022/04/16 02:23:57;;;;;;;81.47;55.97;;;18.90;62.50;;;;;;4940265;28;92138;-40
2022/04/16 02:26:22;;;;;;;81.28;55.50;;;18.90;62.60;;;;;;4951089;28;89765;-34
2022/04/16 02:28:48;;;;;;;82.18;55.38;;;18.90;62.50;;;;;;4948892;28;90013;-36
2022/04/16 02:31:14;;;;;;;81.07;55.10;;;18.90;62.50;;;;;;4943684;28;89810;-38
2022/04/16 02:33:40;;;;;;;81.50;55.75;;;18.80;62.30;;;;;;4951580;28;89904;-36
2022/04/16 02:36:07;;;;;;;82.22;55.80;;;18.80;62.30;;;;;;4943447;28;90395;-37
2022/04/16 02:38:33;;;;;;;81.60;55.67;;;18.80;62.30;;;;;;4939623;28;90644;-39
2022/04/16 02:40:59;;;;;;;80.30;55.20;;;18.80;62.20;;;;;;4940727;28;94564;-39
2022/04/16 02:43:25;;;;;;;79.95;55.05;;;18.80;63.00;;;;;;4946968;28;91766;-38
2022/04/16 02:48:35;;;;;;;81.18;55.42;;;18.80;62.30;;;;;;4944891;28;90920;-41
2022/04/16 02:51:02;;;;;;;80.78;55.30;;;18.80;62.30;;;;;;4942388;28;90624;-37
2022/04/16 02:53:29;;;;;;;81.40;55.28;;;18.80;62.20;;;;;;4942498;28;89649;-40
2022/04/16 02:55:55;;;;;;;80.55;55.63;;;18.80;62.20;;;;;;4945505;28;90784;-35
2022/04/16 02:58:21;;;;;;;81.05;55.50;;;18.80;62.20;;;;;;4943775;28;90198;-39
2022/04/16 03:00:48;;;;;;;81.95;56.00;;;18.70;62.20;;;;;;4949716;28;89990;-39
2022/04/16 03:03:14;;;;;;;81.72;55.65;;;18.70;62.10;;;;;;4941134;28;90261;-38
2022/04/16 03:05:41;;;;;;;80.78;54.88;;;18.80;62.90;;;;;;4943492;28;89907;-38
2022/04/16 03:08:07;;;;;;;80.70;55.30;;;18.70;62.10;;;;;;4949416;28;91682;-36
2022/04/16 03:10:33;;;;;;;80.90;55.50;;;18.70;62.10;;;;;;4936613;28;90648;-39
2022/04/16 03:12:59;;;;;;;79.85;55.22;;;18.70;62.10;;;;;;4942037;28;90039;-40
2022/04/16 03:18:10;;;;;;;80.60;55.25;;;18.70;61.90;;;;;;4941202;28;92697;-40
2022/04/16 03:20:42;;;;;;;79.75;54.92;;;18.70;62.00;;;;;;4940222;28;90471;-41
2022/04/16 03:23:09;;;;;;;80.65;54.80;;;18.70;62.00;;;;;;4945059;28;90526;-42
2022/04/16 03:25:40;;;;;;;80.60;55.45;;;18.70;62.00;;;;;;4942461;28;89429;-37
2022/04/16 03:28:06;;;;;;;80.80;55.53;;;18.60;61.90;;;;;;4945131;28;91190;-41
2022/04/16 03:30:32;;;;;;;82.10;55.42;;;18.60;61.80;;;;;;4941210;28;91713;-36
2022/04/16 03:32:58;;;;;;;80.68;55.85;;;18.60;61.80;;;;;;4940263;28;90938;-37
2022/04/16 03:35:24;;;;;;;80.00;54.58;;;18.60;61.80;;;;;;4939906;28;89947;-39
2022/04/16 03:37:50;;;;;;;80.38;55.45;;;18.60;61.80;;;;;;4944441;28;90091;-34
2022/04/16 03:40:16;;;;;;;80.13;55.35;;;18.50;61.80;;;;;;4935175;28;90559;-38
2022/04/16 03:42:45;;;;;;;81.97;55.75;;;18.50;61.80;;;;;;4940958;28;90322;-39
2022/04/16 03:45:20;;;;;;;81.70;56.40;;;18.60;61.80;;;;;;4940180;28;90354;-40
2022/04/16 03:47:46;;;;;;;79.95;55.05;;;18.50;61.70;;;;;;4936872;28;90767;-38
2022/04/16 03:50:12;;;;;;;79.78;55.10;;;18.50;61.70;;;;;;4937834;28;90554;-37
2022/04/16 03:52:39;;;;;;;81.50;55.10;;;18.50;61.80;;;;;;4948918;28;90589;-38
2022/04/16 04:00:34;;;;;;;80.10;55.35;;;18.40;61.60;;;;;;4947498;28;90384;-36
2022/04/16 04:03:00;;;;;;;80.97;55.63;;;18.40;61.70;;;;;;4939435;28;89862;-37
2022/04/16 04:05:26;;;;;;;80.10;55.03;;;18.40;61.70;;;;;;4935290;28;90260;-39
2022/04/16 04:07:52;;;;;;;80.82;55.35;;;18.40;61.70;;;;;;4953819;28;90597;-34
2022/04/16 04:10:18;;;;;;;81.65;55.58;;;18.40;61.80;;;;;;4949464;28;89874;-37
2022/04/16 04:12:44;;;;;;;80.78;55.30;;;18.40;61.80;;;;;;4946566;28;90598;-37
2022/04/16 04:15:10;;;;;;;80.28;55.13;;;18.40;61.80;;;;;;4937214;28;90876;-37
2022/04/16 04:17:35;;;;;;;81.90;55.88;;;18.40;61.80;;;;;;4937645;28;91391;-40
2022/04/16 04:20:01;;;;;;;82.28;55.42;;;18.40;61.80;;;;;;4949276;28;90283;-37
2022/04/16 04:22:26;;;;;;;78.60;54.25;;;18.40;61.70;;;;;;4939448;28;90975;-40
2022/04/16 04:24:52;;;;;;;79.22;54.78;;;18.40;61.70;;;;;;4940250;28;91669;-41
2022/04/16 04:27:18;;;;;;;80.53;55.25;;;18.40;61.70;;;;;;4940727;28;91293;-40
2022/04/16 04:29:43;;;;;;;82.10;56.17;;;18.30;61.50;;;;;;4938765;28;91500;-39
2022/04/16 04:32:09;;;;;;;79.70;54.83;;;18.30;61.50;;;;;;4939369;28;90140;-36
2022/04/16 04:34:35;;;;;;;80.30;55.17;;;18.30;61.70;;;;;;4938430;28;91067;-39
2022/04/16 04:37:01;;;;;;;80.30;55.10;;;18.30;61.70;;;;;;4940044;28;90800;-41
2022/04/16 04:39:27;;;;;;;82.72;55.42;;;18.30;61.60;;;;;;4939132;28;89565;-41
2022/04/16 04:41:52;;;;;;;81.03;56.03;;;18.30;61.60;;;;;;4941515;28;91217;-38
2022/04/16 04:44:18;;;;;;;82.80;56.33;;;18.30;61.50;;;;;;4940581;28;90329;-40
2022/04/16 04:46:44;;;;;;;81.00;55.33;;;18.30;61.60;;;;;;4941942;28;92132;-40
2022/04/16 04:49:11;;;;;;;83.18;55.80;;;18.30;61.50;;;;;;4938702;28;91300;-40
2022/04/16 04:51:38;;;;;;;81.20;55.60;;;18.20;61.40;;;;;;4942926;28;91168;-40
2022/04/16 04:54:04;;;;;;;80.15;55.53;;;18.30;61.50;;;;;;4942538;28;91975;-39
2022/04/16 04:56:30;;;;;;;79.30;54.65;;;18.20;61.40;;;;;;4938684;28;90292;-41
2022/04/16 04:58:56;;;;;;;79.90;55.13;;;18.20;61.50;;;;;;4937442;28;89914;-42
2022/04/16 05:01:22;;;;;;;81.13;55.83;;;18.20;61.50;;;;;;4940590;28;93332;-41
2022/04/16 05:03:48;;;;;;;81.82;55.80;;;18.20;62.20;;;;;;4940443;28;95465;-40
2022/04/16 05:06:14;;;;;;;81.40;55.72;;;18.20;61.50;;;;;;4937777;28;90358;-39
2022/04/16 05:08:39;;;;;;;80.90;55.03;;;18.20;61.50;;;;;;4937530;28;94757;-39
2022/04/16 05:11:05;;;;;;;80.22;55.85;;;18.20;61.40;;;;;;4937308;28;90834;-37
2022/04/16 05:13:31;;;;;;;79.90;55.08;;;18.10;61.20;;;;;;4938715;28;95128;-37
2022/04/16 05:15:57;;;;;;;81.10;55.72;;;18.20;61.40;;;;;;4942522;28;90977;-38
2022/04/16 05:18:22;;;;;;;80.75;55.88;;;18.10;61.40;;;;;;4941906;28;89875;-39
2022/04/16 05:20:48;;;;;;;80.22;55.45;;;18.10;61.30;;;;;;4940696;28;90066;-40
2022/04/16 05:23:13;;;;;;;81.43;55.45;;;18.10;61.10;;;;;;4938963;28;96116;-41
2022/04/16 05:25:39;;;;;;;82.30;55.67;;;18.10;61.20;;;;;;4944412;28;91343;-40
2022/04/16 05:28:05;;;;;;;82.60;56.28;;;18.10;61.30;;;;;;4938423;28;90458;-38
2022/04/16 05:30:38;;;;;;;81.25;55.63;;;18.10;61.20;;;;;;4941322;28;97265;-38
2022/04/16 05:33:16;;;;;;;82.22;56.65;;;18.10;61.10;;;;;;4941634;28;89894;-36
2022/04/16 05:35:45;;;;;;;81.97;55.78;;;18.10;61.20;;;;;;4941514;28;91189;-39
2022/04/16 05:38:10;;;;;;;79.40;54.70;;;18.10;61.10;;;;;;4938860;28;90816;-37
2022/04/16 05:40:36;;;;;;;78.47;54.53;;;18.10;61.00;;;;;;4937482;28;89890;-36
2022/04/16 05:43:02;;;;;;;81.03;55.45;;;18.10;60.90;;;;;;4940186;28;90404;-40
2022/04/16 05:45:27;;;;;;;81.10;56.33;;;18.10;61.20;;;;;;4940392;28;90789;-40
2022/04/16 05:47:53;;;;;;;80.68;55.65;;;18.10;61.00;;;;;;4938491;28;95258;-40
2022/04/16 05:50:19;;;;;;;79.90;54.85;;;18.10;60.90;;;;;;4942457;28;90257;-37
2022/04/16 05:52:44;;;;;;;80.15;55.70;;;18.10;61.00;;;;;;4937680;28;90347;-37
2022/04/16 05:55:11;;;;;;;80.75;55.72;;;18.10;61.00;;;;;;4938668;28;91111;-42
2022/04/16 05:57:37;;;;;;;81.43;55.85;;;18.00;61.10;;;;;;4941434;28;93413;-38
2022/04/16 06:00:04;;;;;;;83.88;56.20;;;18.10;61.10;;;;;;4938018;28;91564;-37
2022/04/16 06:02:31;;;;;;;82.90;55.75;;;18.10;61.00;;;;;;4940900;28;89947;-39
2022/04/16 06:04:56;;;;;;;84.05;56.58;;;18.10;60.80;;;;;;4934157;28;90709;-37
2022/04/16 06:07:22;;;;;;;82.50;55.08;;;18.10;61.00;;;;;;4935349;28;90290;-39
2022/04/16 06:09:48;;;;;;;85.60;56.17;;;18.10;60.90;;;;;;4937849;28;90394;-39
2022/04/16 06:12:13;;;;;;;83.72;55.65;;;18.10;61.00;;;;;;4938657;28;90513;-38
2022/04/16 06:14:40;;;;;;;86.65;55.55;;;18.10;60.70;;;;;;4932420;28;92245;-41
2022/04/16 06:17:05;;;;;;;84.68;55.00;;;18.10;60.80;;;;;;4943723;28;90717;-38
2022/04/16 06:19:31;;;;;;;87.70;55.83;;;18.10;60.80;;;;;;4938355;28;91089;-39
2022/04/16 06:21:57;;;;;;;85.82;55.47;;;18.10;61.20;;;;;;4935830;28;90396;-39
2022/04/16 06:24:22;;;;;;;86.13;55.78;;;18.10;61.10;;;;;;4937616;28;93220;-42
2022/04/16 06:26:48;;;;;;;86.35;55.58;;;18.10;61.40;;;;;;4940356;28;91421;-41
2022/04/16 06:29:15;;;;;;;82.20;55.15;;;18.10;61.70;;;;;;4939764;28;91918;-37
2022/04/16 06:31:41;;;;;;;83.45;55.78;;;18.10;62.00;;;;;;4941454;28;92604;-41
2022/04/16 06:34:06;;;;;;;81.75;55.13;;;18.10;62.00;;;;;;4937383;28;91289;-39
2022/04/16 06:36:32;;;;;;;82.97;55.05;;;18.10;62.10;;;;;;4935848;28;90470;-35
2022/04/16 06:38:58;;;;;;;82.00;55.25;;;18.10;62.30;;;;;;4935584;28;91356;-35
2022/04/16 06:41:23;;;;;;;82.57;55.22;;;18.10;62.10;;;;;;4943178;28;89051;-37
2022/04/16 06:43:49;;;;;;;82.88;54.88;;;18.10;62.20;;;;;;4943573;28;90554;-35
2022/04/16 06:46:14;;;;;;;81.03;54.97;;;18.10;62.20;;;;;;4934741;28;94328;-40
2022/04/16 06:48:41;;;;;;;82.47;54.95;;;18.10;62.10;;;;;;4931357;28;92327;-39
2022/04/16 06:51:07;;;;;;;80.68;55.08;;;18.10;62.20;;;;;;4929199;28;90874;-37
2022/04/16 06:53:32;;;;;;;83.80;54.78;;;18.10;62.20;;;;;;4934864;28;92573;-34
2022/04/16 06:56:00;;;;;;;82.88;55.22;;;18.10;62.20;;;;;;4933459;28;90145;-40
2022/04/16 06:58:31;;;;;;;90.80;57.88;;;18.10;62.20;;;;;;4937281;28;90844;-38
2022/04/16 07:00:57;;;;;;;90.15;56.67;;;18.10;62.30;;;;;;4934780;28;91461;-41
2022/04/16 07:03:23;;;;;;;86.85;55.92;;;18.10;63.00;;;;;;4929497;28;90152;-40
2022/04/16 07:05:48;;;;;;;86.88;55.90;;;18.10;63.00;;;;;;4934982;28;90653;-39
2022/04/16 07:08:14;;;;;;;93.13;57.40;;;18.10;62.80;;;;;;4934073;28;96538;-40
2022/04/16 07:10:39;;;;;;;87.40;55.97;;;18.10;63.60;;;;;;4932355;28;89916;-37
2022/04/16 07:13:06;;;;;;;87.07;56.13;;;18.10;63.70;;;;;;4938807;28;92730;-38
2022/04/16 07:15:33;;;;;;;86.53;55.35;;;18.10;63.40;;;;;;4943430;28;91143;-39
2022/04/16 07:17:59;;;;;;;84.63;55.58;;;18.10;63.30;;;;;;4945659;28;89866;-37
2022/04/16 07:20:25;;;;;;;88.20;55.83;;;18.20;63.10;;;;;;4951496;28;90135;-40
2022/04/16 07:22:51;;;;;;;86.07;55.70;;;18.20;62.90;;;;;;4943122;28;91311;-36
2022/04/16 07:25:16;;;;;;;84.25;55.60;;;18.20;62.80;;;;;;4944231;28;90403;-39
2022/04/16 07:27:43;;;;;;;87.68;55.58;;;18.10;62.60;;;;;;4947651;28;90018;-39
2022/04/16 07:30:13;;;;;;;85.20;56.10;;;18.20;62.60;;;;;;4945868;28;94003;-38
2022/04/16 07:32:39;;;;;;;85.97;55.80;;;18.20;62.30;;;;;;4945846;28;89798;-40
2022/04/16 07:35:06;;;;;;;85.22;56.00;;;18.20;62.10;;;;;;4946391;28;89480;-36
2022/04/16 07:37:32;;;;;;;85.68;56.28;;;18.20;62.00;;;;;;4946626;28;91371;-42
2022/04/16 07:39:57;;;;;;;83.03;56.03;;;18.20;61.90;;;;;;4948106;28;90499;-38
2022/04/16 07:42:27;;;;;;;84.57;55.85;;;18.20;61.90;;;;;;4945014;28;90222;-41
2022/04/16 07:44:53;;;;;;;83.07;55.97;;;18.20;61.80;;;;;;4943170;28;94746;-41
2022/04/16 07:47:18;;;;;;;87.50;55.38;;;18.20;61.70;;;;;;4941055;28;90721;-40
2022/04/16 07:49:44;;;;;;;81.18;55.30;;;18.20;61.70;;;;;;4946598;28;90010;-38
2022/04/16 07:52:10;;;;;;;81.72;54.95;;;18.20;61.70;;;;;;4941438;28;89773;-41
2022/04/16 07:54:37;;;;;;;83.55;55.58;;;18.20;61.60;;;;;;4947714;28;90710;-40
2022/04/16 07:57:06;;;;;;;84.85;55.33;;;18.30;61.60;;;;;;4944461;28;89676;-40
2022/04/16 07:59:32;;;;;;;84.88;55.60;;;18.30;61.50;;;;;;4938018;28;90844;-39
2022/04/16 08:01:58;;;;;;;83.68;54.85;;;18.30;62.10;;;;;;4942991;28;90668;-41
2022/04/16 08:04:24;;;;;;;85.03;55.33;;;18.30;61.50;;;;;;4945920;28;95277;-42
2022/04/16 08:06:50;;;;;;;86.53;55.33;;;18.30;61.40;;;;;;4945782;28;95144;-39
2022/04/16 08:09:17;;;;;;;83.95;55.40;;;18.30;61.40;;;;;;4950251;28;89771;-36
2022/04/16 08:11:46;;;;;;;84.45;55.78;;;18.30;61.20;;;;;;4944406;28;89919;-38
2022/04/16 08:14:12;;;;;;;82.10;55.47;;;18.30;61.20;;;;;;4945253;28;91703;-35
2022/04/16 08:16:38;;;;;;;84.47;55.00;;;18.40;61.10;;;;;;4941820;28;91536;-42
2022/04/16 08:19:03;;;;;;;85.93;55.58;;;18.30;60.90;;;;;;4947394;28;89069;-41
2022/04/16 08:21:30;;;;;;;81.72;55.55;;;18.40;60.90;;;;;;4945668;28;90951;-37
2022/04/16 08:24:04;;;;;;;83.60;55.03;;;18.40;60.90;;;;;;4945434;28;94383;-38
2022/04/16 08:26:30;;;;;;;87.28;55.25;;;18.40;60.90;;;;;;4941999;28;91562;-42
2022/04/16 08:28:56;;;;;;;82.40;55.13;;;18.40;60.70;;;;;;4936826;28;89874;-42
2022/04/16 08:31:21;;;;;;;82.38;54.75;;;18.40;60.80;;;;;;4944825;28;91329;-40
2022/04/16 08:33:47;;;;;;;82.07;54.33;;;18.50;60.90;;;;;;4943560;28;89964;-40
2022/04/16 08:36:13;;;;;;;83.32;54.85;;;18.50;60.90;;;;;;4944073;28;89854;-40
2022/04/16 08:38:38;;;;;;;82.78;55.05;;;18.50;60.80;;;;;;4946290;28;91890;-36
2022/04/16 08:41:05;;;;;;;82.38;54.55;;;18.50;60.80;;;;;;4944485;28;97406;-38
2022/04/16 08:43:32;;;;;;;84.57;55.25;;;18.50;60.80;;;;;;4936892;28;91259;-41
2022/04/16 08:46:00;;;;;;;84.05;54.90;;;18.50;60.70;;;;;;4942748;28;92015;-39
2022/04/16 08:48:26;;;;;;;83.78;54.95;;;18.50;60.50;;;;;;4945373;28;90185;-37
2022/04/16 08:50:52;;;;;;;81.95;54.90;;;18.50;60.60;;;;;;4942630;28;92051;-38
2022/04/16 08:53:18;;;;;;;83.45;55.00;;;18.60;60.60;;;;;;4946233;28;90032;-40
2022/04/16 08:55:44;;;;;;;84.70;54.45;;;18.60;60.60;;;;;;4943828;28;91464;-37
2022/04/16 08:58:09;;;;;;;83.82;54.45;;;18.60;60.60;;;;;;4943395;28;90501;-36
2022/04/16 09:00:35;;;;;;;85.05;54.58;;;18.60;60.60;;;;;;4943463;28;95438;-35
2022/04/16 09:03:04;;;;;;;85.00;54.10;;;18.60;60.50;;;;;;4946890;28;89982;-38
2022/04/16 09:05:30;;;;;;;82.50;54.60;;;18.60;60.50;;;;;;4939257;28;91343;-35
2022/04/16 09:07:58;;;;;;;85.38;54.40;;;18.60;60.40;;;;;;4948103;28;89365;-39
2022/04/16 09:10:30;;;;;;;81.45;54.55;;;18.60;60.40;;;;;;4944674;28;90198;-38
2022/04/16 09:12:58;;;;;;;82.00;54.35;;;18.70;60.50;;;;;;4942284;28;95212;-37
2022/04/16 09:15:25;;;;;;;82.97;54.33;;;18.70;61.20;;;;;;4937628;28;92987;-41
2022/04/16 09:18:03;;;;;;;84.22;54.72;;;18.70;60.50;;;;;;4946903;28;90106;-41
2022/04/16 09:20:36;;;;;;;84.43;53.95;;;18.70;60.40;;;;;;4946691;28;89822;-39
2022/04/16 09:23:15;;;;;;;82.05;54.05;;;18.70;60.30;;;;;;4946593;28;89817;-41
2022/04/16 09:25:42;;;;;;;80.97;53.95;;;18.80;60.30;;;;;;4948725;28;89940;-41
2022/04/16 09:28:08;;;;;;;80.57;54.17;;;18.80;60.20;;;;;;4949364;28;89485;-42
2022/04/16 09:30:34;;;;;;;83.03;54.25;;;18.80;60.20;;;;;;4943959;28;90553;-37
2022/04/16 09:33:01;;;;;;;80.60;53.92;;;18.80;60.30;;;;;;4949156;28;90266;-41
2022/04/16 09:35:33;;;;;;;80.50;54.10;;;18.80;60.30;;;;;;4946593;28;95960;-43
2022/04/16 09:37:59;;;;;;;;;;;18.80;60.10;;;;;;4942257;28;90218;-40
2022/04/16 09:40:35;;;;;;;81.22;53.63;;;18.90;60.20;;;;;;4944941;28;91062;-37
2022/04/16 09:43:03;;;;;;;80.40;53.72;;;18.90;60.10;;;;;;4946956;28;90854;-43
2022/04/16 09:45:29;;;;;;;82.03;54.05;;;18.90;60.10;;;;;;4948548;28;90008;-37
2022/04/16 09:47:55;;;;;;;81.10;53.47;;;18.90;59.90;;;;;;4951818;28;90240;-38
2022/04/16 09:50:26;;;;;;;82.25;54.08;;;18.90;59.90;;;;;;4949076;28;95396;-38
2022/04/16 09:52:56;;;;;;;81.15;54.03;;;18.90;60.00;;;;;;4967791;28;91077;-38
2022/04/16 09:55:24;;;;;;;80.70;54.03;;;19.00;59.80;;;;;;4946619;28;89632;-35
2022/04/16 09:58:01;;;;;;;82.68;53.78;;;19.00;59.70;;;;;;4953594;28;89717;-42
2022/04/16 10:00:27;;;;;;;80.57;53.58;;;19.00;60.30;;;;;;4945121;28;90544;-36
2022/04/16 10:02:54;;;;;;;80.57;53.45;;;19.00;59.70;;;;;;4950583;28;91454;-40
2022/04/16 10:05:21;;;;;;;80.50;53.55;;;19.10;59.80;;;;;;4941386;28;90961;-39
2022/04/16 10:07:47;;;;;;;81.82;53.70;;;19.10;59.70;;;;;;4947915;28;90028;-38
2022/04/16 10:10:25;;;;;;;82.10;53.58;;;19.10;59.40;;;;;;4940945;28;90448;-38
2022/04/16 10:13:01;;;;;;;81.25;53.45;;;19.10;59.50;;;;;;4938581;28;95802;-39
2022/04/16 10:15:54;;;;;;;81.63;53.83;;;19.10;59.40;;;;;;4941737;28;92284;-36
2022/04/16 10:18:20;;;;;;;83.97;54.45;;;19.10;59.10;;;;;;4940171;28;89981;-36
2022/04/16 10:21:01;;;;;;;81.43;53.90;;;19.20;59.00;;;;;;4943232;28;90035;-41
2022/04/16 10:23:36;;;;;;;82.03;53.78;;;19.20;59.00;;;;;;4947801;28;89939;-37
2022/04/16 10:26:13;;;;;;;81.10;53.75;;;19.20;59.00;;;;;;4936609;28;90453;-38
2022/04/16 10:28:54;;;;;;;81.78;54.13;;;19.20;59.00;;;;;;4934441;28;96658;-38
2022/04/16 10:31:32;;;;;;;83.72;53.95;;;19.30;59.00;;;;;;4937291;28;96257;-37
2022/04/16 10:33:59;;;;;;;81.78;53.53;;;19.30;59.00;;;;;;4941865;28;90467;-36
2022/04/16 10:36:26;;;;;;;81.35;53.78;;;19.30;59.00;;;;;;4933587;28;90076;-35
2022/04/16 10:38:52;;;;;;;82.93;53.75;;;19.30;59.00;;;;;;4931499;28;89923;-38
2022/04/16 10:41:21;;;;;;;82.68;53.92;;;19.30;58.70;;;;;;4931746;28;90184;-39
2022/04/16 10:43:57;;;;;;;80.93;53.60;;;19.40;58.70;;;;;;4933400;28;91083;-38
2022/04/16 10:46:24;;;;;;;83.80;53.75;;;19.40;58.60;;;;;;4934271;28;90822;-38
2022/04/16 10:48:50;;;;;;;81.20;53.55;;;19.40;58.60;;;;;;4944922;28;89250;-38
2022/04/16 10:51:24;;;;;;;81.45;53.28;;;19.40;58.60;;;;;;4939353;28;91575;-40
2022/04/16 10:53:50;;;;;;;84.43;53.92;;;19.40;58.60;;;;;;4938745;28;91027;-38
2022/04/16 10:56:20;;;;;;;82.90;53.75;;;19.40;58.70;;;;;;4935656;28;91000;-42
2022/04/16 10:58:58;;;;;;;83.20;54.00;;;19.50;58.60;;;;;;4926813;28;90506;-39
2022/04/16 11:01:25;;;;;;;83.05;53.65;;;19.50;58.60;;;;;;4927388;28;93794;-43
2022/04/16 11:03:53;;;;;;;85.10;53.85;;;19.50;58.50;;;;;;4929849;28;90420;-40
2022/04/16 11:06:19;;;;;;;82.55;53.95;;;19.50;59.30;;;;;;4928613;28;95375;-36
2022/04/16 11:08:46;;;;;;;87.95;54.90;;;19.60;58.80;;;;;;4931354;28;96121;-38
2022/04/16 11:11:13;;;;;;;91.63;55.63;;;19.60;58.80;;;;;;4928588;28;91996;-41
2022/04/16 11:13:40;;;;;;;92.90;56.03;;;19.50;58.50;;;;;;4930450;28;90470;-41
2022/04/16 11:16:08;;;;;;;88.30;55.75;;;19.60;58.50;;;;;;4929332;28;90834;-41
2022/04/16 11:18:44;;;;;;;93.03;56.17;;;19.60;58.50;;;;;;4929879;28;95782;-39
2022/04/16 11:21:19;;;;;;;94.60;56.60;;;19.60;58.70;;;;;;4935745;28;92611;-37
2022/04/16 11:23:50;;;;;;;94.82;57.83;;;19.70;58.90;;;;;;4932323;28;93033;-43
2022/04/16 11:34:35;;;;;;;134.55;70.00;;;19.80;61.20;;;;;;4939895;28;91199;-40
2022/04/16 11:37:00;;;;;;;109.43;65.63;;;19.80;61.60;;;;;;4935459;28;91028;-40
2022/04/16 11:39:28;;;;;;;116.30;65.50;;;19.90;61.50;;;;;;4929093;28;94568;-37
2022/04/16 11:41:56;;;;;;;122.35;62.67;;;19.90;61.40;;;;;;4929889;28;90812;-39
2022/04/16 11:44:33;;;;;;;112.15;61.58;;;19.90;60.80;;;;;;4932486;28;91798;-40
2022/04/16 11:47:02;;;;;;;107.80;61.17;;;20.00;60.40;;;;;;4933337;28;93290;-42
2022/04/16 11:49:30;;;;;;;106.15;61.00;;;19.90;60.20;;;;;;4937208;28;91325;-41
2022/04/16 11:52:02;;;;;;;102.28;60.10;;;20.00;60.00;;;;;;4934789;28;91708;-41
2022/04/16 11:54:29;;;;;;;101.50;59.58;;;20.00;59.90;;;;;;4941924;28;90581;-41
2022/04/16 11:56:56;;;;;;;102.47;58.88;;;20.10;59.80;;;;;;4924081;28;90371;-38
2022/04/16 11:59:26;;;;;;;101.70;59.15;;;20.10;59.70;;;;;;4930442;28;91456;-39
2022/04/16 12:02:08;;;;;;;97.87;58.50;;;20.10;59.60;;;;;;4931669;28;95916;-38
2022/04/16 12:04:41;;;;;;;100.88;58.50;;;20.10;59.40;;;;;;4933359;28;92029;-40
2022/04/16 12:07:25;;;;;;;101.90;58.28;;;20.10;59.60;;;;;;4931728;28;90374;-37
2022/04/16 12:09:51;;;;;;;100.05;57.67;;;20.20;59.70;;;;;;4941811;28;90685;-41
2022/04/16 12:12:22;;;;;;;99.22;57.28;;;20.20;60.00;;;;;;4937050;28;90958;-35
2022/04/16 12:14:54;;;;;;;103.63;57.72;;;20.20;60.00;;;;;;4932236;28;94797;-39
2022/04/16 12:17:25;;;;;;;104.50;57.60;;;20.20;59.80;;;;;;4929766;28;90919;-42
2022/04/16 12:20:05;;;;;;;99.45;57.30;;;20.20;59.90;;;;;;4928574;28;90597;-36
2022/04/16 12:22:50;;;;;;;97.63;56.77;;;20.30;60.00;;;;;;4932674;28;91324;-38
2022/04/16 12:25:21;;;;;;;101.30;57.08;;;20.30;59.90;;;;;;4927127;28;94000;-39
2022/04/16 12:27:49;;;;;;;97.68;57.70;;;20.20;59.70;;;;;;4932572;28;92122;-38
2022/04/16 12:30:25;;;;;;;95.82;56.85;;;20.30;59.30;;;;;;4930561;28;90266;-40
2022/04/16 12:33:00;;;;;;;98.72;58.00;;;20.30;59.50;;;;;;4928006;28;90755;-38
2022/04/16 12:35:31;;;;;;;103.38;58.22;;;20.30;59.30;;;;;;4932634;28;91927;-39
2022/04/16 12:37:58;;;;;;;;;;;20.30;59.10;;;;;;4931967;28;90885;-37
2022/04/16 12:40:25;;;;;;;98.22;58.13;;;20.30;59.50;;;;;;4949268;28;91033;-39
2022/04/16 12:42:52;;;;;;;99.93;57.47;;;20.30;59.50;;;;;;4943746;28;92846;-42
2022/04/16 12:45:18;;;;;;;97.85;57.38;;;20.30;59.40;;;;;;4947230;28;89899;-39
2022/04/16 12:47:44;;;;;;;96.95;56.97;;;20.30;59.30;;;;;;4948526;28;90117;-41
2022/04/16 12:50:10;;;;;;;98.72;57.80;;;20.30;59.00;;;;;;4952556;28;89992;-39